sensor_id;sensor_type;location;lat;lon;timestamp;P1;durP1;ratioP1;P2;durP2;ratioP2
39066;SDS011;24821;51.988;6.020;2023-09-30T00:01:08;4.72;;;4.40;;
39066;SDS011;24821;51.988;6.020;2023-09-30T00:03:35;7.50;;;5.65;;
39066;SDS011;24821;51.988;6.020;2023-09-30T00:06:00;11.75;;;4.88;;
39066;SDS011;24821;51.988;6.020;2023-09-30T00:08:26;6.75;;;5.55;;
39066;SDS011;24821;51.988;6.020;2023-09-30T00:10:52;5.78;;;5.25;;
39066;SDS011;24821;51.988;6.020;2023-09-30T00:13:19;4.53;;;4.22;;
39066;SDS011;24821;51.988;6.020;2023-09-30T00:15:45;7.20;;;5.65;;
39066;SDS011;24821;51.988;6.020;2023-09-30T00:18:11;5.78;;;5.28;;
39066;SDS011;24821;51.988;6.020;2023-09-30T00:20:37;5.97;;;5.10;;
39066;SDS011;24821;51.988;6.020;2023-09-30T00:23:03;5.85;;;5.28;;
39066;SDS011;24821;51.988;6.020;2023-09-30T00:25:31;5.70;;;5.07;;
39066;SDS011;24821;51.988;6.020;2023-09-30T00:27:57;4.93;;;4.57;;
39066;SDS011;24821;51.988;6.020;2023-09-30T00:30:22;8.10;;;5.00;;
39066;SDS011;24821;51.988;6.020;2023-09-30T00:32:48;5.57;;;5.07;;
39066;SDS011;24821;51.988;6.020;2023-09-30T00:35:14;8.82;;;5.47;;
39066;SDS011;24821;51.988;6.020;2023-09-30T00:37:41;5.55;;;5.15;;
39066;SDS011;24821;51.988;6.020;2023-09-30T00:40:07;6.80;;;5.40;;
39066;SDS011;24821;51.988;6.020;2023-09-30T00:42:37;5.43;;;5.00;;
39066;SDS011;24821;51.988;6.020;2023-09-30T00:45:03;13.65;;;5.93;;
39066;SDS011;24821;51.988;6.020;2023-09-30T00:47:30;8.75;;;6.07;;
39066;SDS011;24821;51.988;6.020;2023-09-30T00:49:56;6.40;;;5.25;;
39066;SDS011;24821;51.988;6.020;2023-09-30T00:52:21;7.30;;;4.68;;
39066;SDS011;24821;51.988;6.020;2023-09-30T00:54:48;5.82;;;5.05;;
39066;SDS011;24821;51.988;6.020;2023-09-30T00:57:14;10.20;;;5.78;;
39066;SDS011;24821;51.988;6.020;2023-09-30T00:59:39;5.53;;;5.13;;
39066;SDS011;24821;51.988;6.020;2023-09-30T01:02:05;5.43;;;5.05;;
39066;SDS011;24821;51.988;6.020;2023-09-30T01:04:31;5.43;;;4.75;;
39066;SDS011;24821;51.988;6.020;2023-09-30T01:06:57;5.72;;;5.22;;
39066;SDS011;24821;51.988;6.020;2023-09-30T01:09:23;6.22;;;5.72;;
39066;SDS011;24821;51.988;6.020;2023-09-30T01:11:49;5.13;;;4.80;;
39066;SDS011;24821;51.988;6.020;2023-09-30T01:14:24;5.93;;;5.40;;
39066;SDS011;24821;51.988;6.020;2023-09-30T01:16:51;5.85;;;5.45;;
39066;SDS011;24821;51.988;6.020;2023-09-30T01:19:16;9.32;;;6.03;;
39066;SDS011;24821;51.988;6.020;2023-09-30T01:21:42;5.90;;;5.40;;
39066;SDS011;24821;51.988;6.020;2023-09-30T01:24:10;9.25;;;5.43;;
39066;SDS011;24821;51.988;6.020;2023-09-30T01:26:35;6.97;;;4.93;;
39066;SDS011;24821;51.988;6.020;2023-09-30T01:29:01;6.40;;;4.97;;
39066;SDS011;24821;51.988;6.020;2023-09-30T01:31:26;6.13;;;5.13;;
39066;SDS011;24821;51.988;6.020;2023-09-30T01:33:52;5.47;;;5.18;;
39066;SDS011;24821;51.988;6.020;2023-09-30T01:36:19;5.88;;;5.32;;
39066;SDS011;24821;51.988;6.020;2023-09-30T01:38:45;5.32;;;4.97;;
39066;SDS011;24821;51.988;6.020;2023-09-30T01:41:11;5.28;;;4.82;;
39066;SDS011;24821;51.988;6.020;2023-09-30T01:43:36;4.75;;;4.35;;
39066;SDS011;24821;51.988;6.020;2023-09-30T01:46:02;4.93;;;4.50;;
39066;SDS011;24821;51.988;6.020;2023-09-30T01:48:30;4.95;;;4.57;;
39066;SDS011;24821;51.988;6.020;2023-09-30T01:50:55;5.60;;;5.10;;
39066;SDS011;24821;51.988;6.020;2023-09-30T01:53:21;5.32;;;4.88;;
39066;SDS011;24821;51.988;6.020;2023-09-30T01:55:46;5.93;;;5.38;;
39066;SDS011;24821;51.988;6.020;2023-09-30T01:58:13;6.43;;;5.57;;
39066;SDS011;24821;51.988;6.020;2023-09-30T02:00:38;5.40;;;5.00;;
39066;SDS011;24821;51.988;6.020;2023-09-30T02:03:04;6.35;;;5.53;;
39066;SDS011;24821;51.988;6.020;2023-09-30T02:05:30;6.03;;;5.40;;
39066;SDS011;24821;51.988;6.020;2023-09-30T02:07:55;4.93;;;4.30;;
39066;SDS011;24821;51.988;6.020;2023-09-30T02:10:21;5.72;;;5.28;;
39066;SDS011;24821;51.988;6.020;2023-09-30T02:12:47;6.57;;;5.13;;
39066;SDS011;24821;51.988;6.020;2023-09-30T02:15:13;6.72;;;5.97;;
39066;SDS011;24821;51.988;6.020;2023-09-30T02:17:39;6.80;;;6.00;;
39066;SDS011;24821;51.988;6.020;2023-09-30T02:20:05;5.50;;;4.93;;
39066;SDS011;24821;51.988;6.020;2023-09-30T02:22:37;4.80;;;4.47;;
39066;SDS011;24821;51.988;6.020;2023-09-30T02:25:04;4.72;;;4.47;;
39066;SDS011;24821;51.988;6.020;2023-09-30T02:27:32;5.20;;;4.80;;
39066;SDS011;24821;51.988;6.020;2023-09-30T02:29:58;5.50;;;5.18;;
39066;SDS011;24821;51.988;6.020;2023-09-30T02:32:23;4.93;;;4.38;;
39066;SDS011;24821;51.988;6.020;2023-09-30T02:34:49;5.53;;;4.88;;
39066;SDS011;24821;51.988;6.020;2023-09-30T02:37:15;5.22;;;4.93;;
39066;SDS011;24821;51.988;6.020;2023-09-30T02:39:43;5.93;;;5.35;;
39066;SDS011;24821;51.988;6.020;2023-09-30T02:42:09;6.18;;;5.60;;
39066;SDS011;24821;51.988;6.020;2023-09-30T02:44:35;5.25;;;4.95;;
39066;SDS011;24821;51.988;6.020;2023-09-30T02:47:00;4.50;;;4.30;;
39066;SDS011;24821;51.988;6.020;2023-09-30T02:49:26;6.25;;;5.75;;
39066;SDS011;24821;51.988;6.020;2023-09-30T02:51:52;7.18;;;5.32;;
39066;SDS011;24821;51.988;6.020;2023-09-30T02:54:18;5.35;;;4.80;;
39066;SDS011;24821;51.988;6.020;2023-09-30T02:56:43;4.95;;;4.63;;
39066;SDS011;24821;51.988;6.020;2023-09-30T02:59:11;4.63;;;4.32;;
39066;SDS011;24821;51.988;6.020;2023-09-30T03:01:36;6.13;;;5.60;;
39066;SDS011;24821;51.988;6.020;2023-09-30T03:04:02;7.15;;;5.13;;
39066;SDS011;24821;51.988;6.020;2023-09-30T03:06:31;4.88;;;4.57;;
39066;SDS011;24821;51.988;6.020;2023-09-30T03:09:00;5.43;;;4.82;;
39066;SDS011;24821;51.988;6.020;2023-09-30T03:11:27;5.18;;;4.78;;
39066;SDS011;24821;51.988;6.020;2023-09-30T03:13:52;5.20;;;4.82;;
39066;SDS011;24821;51.988;6.020;2023-09-30T03:16:20;5.55;;;4.35;;
39066;SDS011;24821;51.988;6.020;2023-09-30T03:18:45;5.57;;;5.18;;
39066;SDS011;24821;51.988;6.020;2023-09-30T03:21:14;6.82;;;5.65;;
39066;SDS011;24821;51.988;6.020;2023-09-30T03:23:40;6.30;;;5.80;;
39066;SDS011;24821;51.988;6.020;2023-09-30T03:26:06;6.63;;;5.93;;
39066;SDS011;24821;51.988;6.020;2023-09-30T03:28:38;10.23;;;5.55;;
39066;SDS011;24821;51.988;6.020;2023-09-30T03:31:04;5.60;;;5.15;;
39066;SDS011;24821;51.988;6.020;2023-09-30T03:33:31;5.75;;;5.15;;
39066;SDS011;24821;51.988;6.020;2023-09-30T03:35:57;6.18;;;5.65;;
39066;SDS011;24821;51.988;6.020;2023-09-30T03:38:23;4.75;;;4.45;;
39066;SDS011;24821;51.988;6.020;2023-09-30T03:40:50;11.50;;;5.15;;
39066;SDS011;24821;51.988;6.020;2023-09-30T03:43:18;5.95;;;5.47;;
39066;SDS011;24821;51.988;6.020;2023-09-30T03:45:44;12.65;;;6.80;;
39066;SDS011;24821;51.988;6.020;2023-09-30T03:48:10;6.22;;;5.78;;
39066;SDS011;24821;51.988;6.020;2023-09-30T03:50:36;5.53;;;5.13;;
39066;SDS011;24821;51.988;6.020;2023-09-30T03:53:03;6.63;;;5.97;;
39066;SDS011;24821;51.988;6.020;2023-09-30T03:55:38;5.50;;;4.55;;
39066;SDS011;24821;51.988;6.020;2023-09-30T03:58:03;5.82;;;5.32;;
39066;SDS011;24821;51.988;6.020;2023-09-30T04:00:29;7.72;;;6.50;;
39066;SDS011;24821;51.988;6.020;2023-09-30T04:02:54;6.93;;;5.30;;
39066;SDS011;24821;51.988;6.020;2023-09-30T04:05:23;5.35;;;5.00;;
39066;SDS011;24821;51.988;6.020;2023-09-30T04:07:59;9.32;;;5.95;;
39066;SDS011;24821;51.988;6.020;2023-09-30T04:10:24;9.38;;;6.03;;
39066;SDS011;24821;51.988;6.020;2023-09-30T04:12:51;7.38;;;6.60;;
39066;SDS011;24821;51.988;6.020;2023-09-30T04:15:17;8.52;;;5.65;;
39066;SDS011;24821;51.988;6.020;2023-09-30T04:17:43;5.85;;;5.50;;
39066;SDS011;24821;51.988;6.020;2023-09-30T04:20:09;6.32;;;5.72;;
39066;SDS011;24821;51.988;6.020;2023-09-30T04:22:36;5.50;;;5.15;;
39066;SDS011;24821;51.988;6.020;2023-09-30T04:25:03;10.82;;;5.85;;
39066;SDS011;24821;51.988;6.020;2023-09-30T04:27:36;8.02;;;6.57;;
39066;SDS011;24821;51.988;6.020;2023-09-30T04:30:02;7.22;;;6.43;;
39066;SDS011;24821;51.988;6.020;2023-09-30T04:32:34;6.18;;;5.57;;
39066;SDS011;24821;51.988;6.020;2023-09-30T04:35:05;6.78;;;6.18;;
39066;SDS011;24821;51.988;6.020;2023-09-30T04:37:33;6.53;;;5.85;;
39066;SDS011;24821;51.988;6.020;2023-09-30T04:40:00;7.70;;;6.88;;
39066;SDS011;24821;51.988;6.020;2023-09-30T04:42:26;8.48;;;6.55;;
39066;SDS011;24821;51.988;6.020;2023-09-30T04:44:54;6.88;;;6.32;;
39066;SDS011;24821;51.988;6.020;2023-09-30T04:47:24;7.60;;;6.90;;
39066;SDS011;24821;51.988;6.020;2023-09-30T04:49:49;7.35;;;6.80;;
39066;SDS011;24821;51.988;6.020;2023-09-30T04:52:16;8.45;;;6.68;;
39066;SDS011;24821;51.988;6.020;2023-09-30T04:54:41;6.63;;;6.07;;
39066;SDS011;24821;51.988;6.020;2023-09-30T04:57:07;6.35;;;5.85;;
39066;SDS011;24821;51.988;6.020;2023-09-30T04:59:33;6.13;;;5.55;;
39066;SDS011;24821;51.988;6.020;2023-09-30T05:01:59;6.80;;;6.22;;
39066;SDS011;24821;51.988;6.020;2023-09-30T05:04:25;6.75;;;6.13;;
39066;SDS011;24821;51.988;6.020;2023-09-30T05:06:50;8.00;;;6.50;;
39066;SDS011;24821;51.988;6.020;2023-09-30T05:09:16;6.72;;;6.22;;
39066;SDS011;24821;51.988;6.020;2023-09-30T05:11:42;5.60;;;5.20;;
39066;SDS011;24821;51.988;6.020;2023-09-30T05:14:07;8.38;;;6.13;;
39066;SDS011;24821;51.988;6.020;2023-09-30T05:16:33;6.82;;;6.32;;
39066;SDS011;24821;51.988;6.020;2023-09-30T05:18:58;6.07;;;5.55;;
39066;SDS011;24821;51.988;6.020;2023-09-30T05:21:24;7.00;;;6.40;;
39066;SDS011;24821;51.988;6.020;2023-09-30T05:23:49;6.75;;;5.45;;
39066;SDS011;24821;51.988;6.020;2023-09-30T05:26:15;7.45;;;6.72;;
39066;SDS011;24821;51.988;6.020;2023-09-30T05:28:41;10.38;;;6.85;;
39066;SDS011;24821;51.988;6.020;2023-09-30T05:31:07;7.53;;;6.93;;
39066;SDS011;24821;51.988;6.020;2023-09-30T05:33:33;8.13;;;6.68;;
39066;SDS011;24821;51.988;6.020;2023-09-30T05:35:59;8.40;;;5.82;;
39066;SDS011;24821;51.988;6.020;2023-09-30T05:38:27;7.65;;;6.93;;
39066;SDS011;24821;51.988;6.020;2023-09-30T05:40:54;9.15;;;7.80;;
39066;SDS011;24821;51.988;6.020;2023-09-30T05:43:19;7.47;;;6.47;;
39066;SDS011;24821;51.988;6.020;2023-09-30T05:45:46;7.20;;;6.10;;
39066;SDS011;24821;51.988;6.020;2023-09-30T05:48:19;8.75;;;7.85;;
39066;SDS011;24821;51.988;6.020;2023-09-30T05:50:45;7.15;;;6.43;;
39066;SDS011;24821;51.988;6.020;2023-09-30T05:53:12;7.07;;;5.72;;
39066;SDS011;24821;51.988;6.020;2023-09-30T05:55:39;7.70;;;6.68;;
39066;SDS011;24821;51.988;6.020;2023-09-30T05:58:08;7.07;;;6.45;;
39066;SDS011;24821;51.988;6.020;2023-09-30T06:00:34;6.93;;;6.28;;
39066;SDS011;24821;51.988;6.020;2023-09-30T06:03:00;7.93;;;7.35;;
39066;SDS011;24821;51.988;6.020;2023-09-30T06:05:27;6.47;;;5.65;;
39066;SDS011;24821;51.988;6.020;2023-09-30T06:07:56;7.07;;;6.40;;
39066;SDS011;24821;51.988;6.020;2023-09-30T06:10:22;7.55;;;6.78;;
39066;SDS011;24821;51.988;6.020;2023-09-30T06:12:49;14.65;;;5.85;;
39066;SDS011;24821;51.988;6.020;2023-09-30T06:15:20;7.70;;;7.07;;
39066;SDS011;24821;51.988;6.020;2023-09-30T06:17:47;7.10;;;6.00;;
39066;SDS011;24821;51.988;6.020;2023-09-30T06:20:14;7.15;;;6.55;;
39066;SDS011;24821;51.988;6.020;2023-09-30T06:22:45;9.38;;;7.28;;
39066;SDS011;24821;51.988;6.020;2023-09-30T06:25:12;8.57;;;7.88;;
39066;SDS011;24821;51.988;6.020;2023-09-30T06:27:41;8.00;;;6.75;;
39066;SDS011;24821;51.988;6.020;2023-09-30T06:30:10;8.32;;;7.63;;
39066;SDS011;24821;51.988;6.020;2023-09-30T06:32:37;8.43;;;7.05;;
39066;SDS011;24821;51.988;6.020;2023-09-30T06:35:02;7.13;;;6.50;;
39066;SDS011;24821;51.988;6.020;2023-09-30T06:37:29;7.38;;;6.78;;
39066;SDS011;24821;51.988;6.020;2023-09-30T06:39:54;6.93;;;6.43;;
39066;SDS011;24821;51.988;6.020;2023-09-30T06:42:20;7.25;;;6.75;;
39066;SDS011;24821;51.988;6.020;2023-09-30T06:44:46;7.57;;;7.07;;
39066;SDS011;24821;51.988;6.020;2023-09-30T06:47:12;7.40;;;6.72;;
39066;SDS011;24821;51.988;6.020;2023-09-30T06:49:38;7.50;;;6.97;;
39066;SDS011;24821;51.988;6.020;2023-09-30T06:52:04;8.93;;;8.00;;
39066;SDS011;24821;51.988;6.020;2023-09-30T06:54:33;7.40;;;6.90;;
39066;SDS011;24821;51.988;6.020;2023-09-30T06:56:58;8.75;;;7.97;;
39066;SDS011;24821;51.988;6.020;2023-09-30T06:59:25;9.07;;;8.27;;
39066;SDS011;24821;51.988;6.020;2023-09-30T07:01:51;9.88;;;7.20;;
39066;SDS011;24821;51.988;6.020;2023-09-30T07:04:16;8.10;;;7.35;;
39066;SDS011;24821;51.988;6.020;2023-09-30T07:06:42;9.77;;;7.97;;
39066;SDS011;24821;51.988;6.020;2023-09-30T07:09:08;8.60;;;7.78;;
39066;SDS011;24821;51.988;6.020;2023-09-30T07:11:35;9.50;;;8.55;;
39066;SDS011;24821;51.988;6.020;2023-09-30T07:14:01;11.80;;;9.00;;
39066;SDS011;24821;51.988;6.020;2023-09-30T07:16:27;11.55;;;8.85;;
39066;SDS011;24821;51.988;6.020;2023-09-30T07:18:52;11.55;;;9.57;;
39066;SDS011;24821;51.988;6.020;2023-09-30T07:21:18;16.75;;;10.35;;
39066;SDS011;24821;51.988;6.020;2023-09-30T07:23:44;12.23;;;9.25;;
39066;SDS011;24821;51.988;6.020;2023-09-30T07:26:10;11.30;;;9.77;;
39066;SDS011;24821;51.988;6.020;2023-09-30T07:28:35;10.10;;;9.18;;
39066;SDS011;24821;51.988;6.020;2023-09-30T07:31:01;12.07;;;9.82;;
39066;SDS011;24821;51.988;6.020;2023-09-30T07:33:27;10.13;;;9.27;;
39066;SDS011;24821;51.988;6.020;2023-09-30T07:35:53;11.48;;;9.80;;
39066;SDS011;24821;51.988;6.020;2023-09-30T07:38:20;13.15;;;10.35;;
39066;SDS011;24821;51.988;6.020;2023-09-30T07:40:47;11.45;;;9.73;;
39066;SDS011;24821;51.988;6.020;2023-09-30T07:43:13;10.65;;;9.75;;
39066;SDS011;24821;51.988;6.020;2023-09-30T07:45:39;10.05;;;9.02;;
39066;SDS011;24821;51.988;6.020;2023-09-30T07:48:06;12.57;;;10.35;;
39066;SDS011;24821;51.988;6.020;2023-09-30T07:50:34;15.45;;;9.73;;
39066;SDS011;24821;51.988;6.020;2023-09-30T07:53:00;11.93;;;9.32;;
39066;SDS011;24821;51.988;6.020;2023-09-30T07:55:26;11.35;;;8.77;;
39066;SDS011;24821;51.988;6.020;2023-09-30T07:57:51;13.98;;;8.75;;
39066;SDS011;24821;51.988;6.020;2023-09-30T08:00:17;12.52;;;9.38;;
39066;SDS011;24821;51.988;6.020;2023-09-30T08:02:46;13.43;;;9.82;;
39066;SDS011;24821;51.988;6.020;2023-09-30T08:05:12;12.98;;;9.82;;
39066;SDS011;24821;51.988;6.020;2023-09-30T08:07:38;11.82;;;10.00;;
39066;SDS011;24821;51.988;6.020;2023-09-30T08:10:03;17.38;;;10.63;;
39066;SDS011;24821;51.988;6.020;2023-09-30T08:12:30;11.10;;;9.13;;
39066;SDS011;24821;51.988;6.020;2023-09-30T08:14:55;13.82;;;9.55;;
39066;SDS011;24821;51.988;6.020;2023-09-30T08:17:21;12.20;;;9.50;;
39066;SDS011;24821;51.988;6.020;2023-09-30T08:19:46;10.55;;;9.48;;
39066;SDS011;24821;51.988;6.020;2023-09-30T08:22:13;11.70;;;9.43;;
39066;SDS011;24821;51.988;6.020;2023-09-30T08:24:39;11.13;;;10.05;;
39066;SDS011;24821;51.988;6.020;2023-09-30T08:27:04;11.23;;;8.82;;
39066;SDS011;24821;51.988;6.020;2023-09-30T08:29:33;10.85;;;9.77;;
39066;SDS011;24821;51.988;6.020;2023-09-30T08:32:01;11.63;;;10.52;;
39066;SDS011;24821;51.988;6.020;2023-09-30T08:34:27;12.88;;;10.65;;
39066;SDS011;24821;51.988;6.020;2023-09-30T08:36:53;11.00;;;9.88;;
39066;SDS011;24821;51.988;6.020;2023-09-30T08:39:19;10.45;;;9.30;;
39066;SDS011;24821;51.988;6.020;2023-09-30T08:41:45;12.40;;;10.25;;
39066;SDS011;24821;51.988;6.020;2023-09-30T08:44:11;11.90;;;10.88;;
39066;SDS011;24821;51.988;6.020;2023-09-30T08:46:37;10.10;;;9.18;;
39066;SDS011;24821;51.988;6.020;2023-09-30T08:49:04;13.68;;;10.20;;
39066;SDS011;24821;51.988;6.020;2023-09-30T08:51:34;13.30;;;11.02;;
39066;SDS011;24821;51.988;6.020;2023-09-30T08:54:01;13.32;;;11.63;;
39066;SDS011;24821;51.988;6.020;2023-09-30T08:56:29;14.25;;;12.07;;
39066;SDS011;24821;51.988;6.020;2023-09-30T08:58:58;11.65;;;10.48;;
39066;SDS011;24821;51.988;6.020;2023-09-30T09:01:25;13.13;;;11.32;;
39066;SDS011;24821;51.988;6.020;2023-09-30T09:03:52;18.10;;;10.88;;
39066;SDS011;24821;51.988;6.020;2023-09-30T09:06:19;11.15;;;10.15;;
39066;SDS011;24821;51.988;6.020;2023-09-30T09:08:49;11.18;;;10.02;;
39066;SDS011;24821;51.988;6.020;2023-09-30T09:11:15;10.32;;;9.05;;
39066;SDS011;24821;51.988;6.020;2023-09-30T09:13:52;13.75;;;10.25;;
39066;SDS011;24821;51.988;6.020;2023-09-30T09:16:21;11.25;;;10.35;;
39066;SDS011;24821;51.988;6.020;2023-09-30T09:18:47;15.25;;;10.77;;
39066;SDS011;24821;51.988;6.020;2023-09-30T09:21:14;18.27;;;10.75;;
39066;SDS011;24821;51.988;6.020;2023-09-30T09:23:43;12.85;;;10.60;;
39066;SDS011;24821;51.988;6.020;2023-09-30T09:26:10;11.20;;;10.07;;
39066;SDS011;24821;51.988;6.020;2023-09-30T09:28:59;17.98;;;10.52;;
39066;SDS011;24821;51.988;6.020;2023-09-30T09:31:26;11.88;;;9.98;;
39066;SDS011;24821;51.988;6.020;2023-09-30T09:33:56;11.68;;;10.02;;
39066;SDS011;24821;51.988;6.020;2023-09-30T09:36:37;11.05;;;8.98;;
39066;SDS011;24821;51.988;6.020;2023-09-30T09:39:05;12.70;;;8.68;;
39066;SDS011;24821;51.988;6.020;2023-09-30T09:41:30;11.32;;;9.70;;
39066;SDS011;24821;51.988;6.020;2023-09-30T09:43:56;13.50;;;10.38;;
39066;SDS011;24821;51.988;6.020;2023-09-30T09:46:24;9.02;;;8.15;;
39066;SDS011;24821;51.988;6.020;2023-09-30T09:48:52;9.48;;;8.13;;
39066;SDS011;24821;51.988;6.020;2023-09-30T09:51:19;11.18;;;8.80;;
39066;SDS011;24821;51.988;6.020;2023-09-30T09:53:46;10.07;;;7.65;;
39066;SDS011;24821;51.988;6.020;2023-09-30T09:56:14;10.75;;;7.97;;
39066;SDS011;24821;51.988;6.020;2023-09-30T09:58:40;8.85;;;8.05;;
39066;SDS011;24821;51.988;6.020;2023-09-30T10:01:09;10.93;;;8.77;;
39066;SDS011;24821;51.988;6.020;2023-09-30T10:03:35;11.45;;;8.10;;
39066;SDS011;24821;51.988;6.020;2023-09-30T10:06:04;9.73;;;7.32;;
39066;SDS011;24821;51.988;6.020;2023-09-30T10:08:36;15.63;;;8.25;;
39066;SDS011;24821;51.988;6.020;2023-09-30T10:11:06;10.05;;;7.32;;
39066;SDS011;24821;51.988;6.020;2023-09-30T10:19:15;8.07;;;7.28;;
39066;SDS011;24821;51.988;6.020;2023-09-30T10:24:52;11.07;;;7.30;;
39066;SDS011;24821;51.988;6.020;2023-09-30T10:35:20;8.50;;;6.85;;
39066;SDS011;24821;51.988;6.020;2023-09-30T10:40:47;7.15;;;6.55;;
39066;SDS011;24821;51.988;6.020;2023-09-30T10:43:32;9.20;;;7.25;;
39066;SDS011;24821;51.988;6.020;2023-09-30T10:46:02;18.30;;;7.72;;
39066;SDS011;24821;51.988;6.020;2023-09-30T10:48:47;13.30;;;6.60;;
39066;SDS011;24821;51.988;6.020;2023-09-30T10:51:14;7.75;;;6.95;;
39066;SDS011;24821;51.988;6.020;2023-09-30T10:53:50;7.80;;;6.32;;
39066;SDS011;24821;51.988;6.020;2023-09-30T10:56:18;8.10;;;6.68;;
39066;SDS011;24821;51.988;6.020;2023-09-30T10:58:45;7.40;;;5.70;;
39066;SDS011;24821;51.988;6.020;2023-09-30T11:01:13;8.57;;;6.13;;
39066;SDS011;24821;51.988;6.020;2023-09-30T11:03:43;7.50;;;6.28;;
39066;SDS011;24821;51.988;6.020;2023-09-30T11:06:16;5.95;;;5.22;;
39066;SDS011;24821;51.988;6.020;2023-09-30T11:08:45;11.13;;;5.43;;
39066;SDS011;24821;51.988;6.020;2023-09-30T11:14:24;8.40;;;5.35;;
39066;SDS011;24821;51.988;6.020;2023-09-30T11:16:55;4.97;;;4.63;;
39066;SDS011;24821;51.988;6.020;2023-09-30T11:22:27;7.65;;;5.57;;
39066;SDS011;24821;51.988;6.020;2023-09-30T11:24:52;6.03;;;4.68;;
39066;SDS011;24821;51.988;6.020;2023-09-30T11:27:24;6.07;;;5.57;;
39066;SDS011;24821;51.988;6.020;2023-09-30T11:29:50;6.40;;;5.05;;
39066;SDS011;24821;51.988;6.020;2023-09-30T11:32:25;4.90;;;4.50;;
39066;SDS011;24821;51.988;6.020;2023-09-30T11:34:52;5.07;;;4.57;;
39066;SDS011;24821;51.988;6.020;2023-09-30T11:37:18;5.47;;;4.93;;
39066;SDS011;24821;51.988;6.020;2023-09-30T11:39:43;11.90;;;5.32;;
39066;SDS011;24821;51.988;6.020;2023-09-30T11:42:16;4.90;;;4.50;;
39066;SDS011;24821;51.988;6.020;2023-09-30T11:44:46;8.68;;;4.55;;
39066;SDS011;24821;51.988;6.020;2023-09-30T11:47:13;5.88;;;5.07;;
39066;SDS011;24821;51.988;6.020;2023-09-30T11:49:40;4.53;;;4.13;;
39066;SDS011;24821;51.988;6.020;2023-09-30T11:52:13;4.18;;;3.80;;
39066;SDS011;24821;51.988;6.020;2023-09-30T11:54:40;6.32;;;5.70;;
39066;SDS011;24821;51.988;6.020;2023-09-30T11:57:09;8.68;;;5.05;;
39066;SDS011;24821;51.988;6.020;2023-09-30T11:59:36;6.25;;;4.30;;
39066;SDS011;24821;51.988;6.020;2023-09-30T12:02:02;6.07;;;5.00;;
39066;SDS011;24821;51.988;6.020;2023-09-30T12:04:30;6.20;;;4.80;;
39066;SDS011;24821;51.988;6.020;2023-09-30T12:06:56;6.65;;;5.10;;
39066;SDS011;24821;51.988;6.020;2023-09-30T12:09:22;5.75;;;4.70;;
39066;SDS011;24821;51.988;6.020;2023-09-30T12:11:51;7.30;;;5.45;;
39066;SDS011;24821;51.988;6.020;2023-09-30T12:14:18;5.32;;;4.82;;
39066;SDS011;24821;51.988;6.020;2023-09-30T12:16:45;5.00;;;4.50;;
39066;SDS011;24821;51.988;6.020;2023-09-30T12:19:12;5.45;;;4.93;;
39066;SDS011;24821;51.988;6.020;2023-09-30T12:21:43;5.60;;;4.05;;
39066;SDS011;24821;51.988;6.020;2023-09-30T12:24:11;9.38;;;4.32;;
39066;SDS011;24821;51.988;6.020;2023-09-30T12:26:41;9.15;;;4.57;;
39066;SDS011;24821;51.988;6.020;2023-09-30T12:29:13;11.77;;;4.88;;
39066;SDS011;24821;51.988;6.020;2023-09-30T12:31:46;12.75;;;4.43;;
39066;SDS011;24821;51.988;6.020;2023-09-30T12:34:12;3.97;;;3.60;;
39066;SDS011;24821;51.988;6.020;2023-09-30T12:36:41;4.47;;;4.18;;
39066;SDS011;24821;51.988;6.020;2023-09-30T12:39:07;4.13;;;3.30;;
39066;SDS011;24821;51.988;6.020;2023-09-30T12:41:37;8.07;;;4.07;;
39066;SDS011;24821;51.988;6.020;2023-09-30T12:44:03;5.38;;;4.47;;
39066;SDS011;24821;51.988;6.020;2023-09-30T12:46:29;9.15;;;4.93;;
39066;SDS011;24821;51.988;6.020;2023-09-30T12:48:55;7.70;;;4.22;;
39066;SDS011;24821;51.988;6.020;2023-09-30T12:51:22;5.13;;;4.35;;
39066;SDS011;24821;51.988;6.020;2023-09-30T12:53:48;3.88;;;3.63;;
39066;SDS011;24821;51.988;6.020;2023-09-30T12:56:14;5.25;;;4.03;;
39066;SDS011;24821;51.988;6.020;2023-09-30T12:58:40;6.28;;;3.75;;
39066;SDS011;24821;51.988;6.020;2023-09-30T13:01:05;5.10;;;3.55;;
39066;SDS011;24821;51.988;6.020;2023-09-30T13:03:31;4.22;;;3.80;;
39066;SDS011;24821;51.988;6.020;2023-09-30T13:05:57;6.32;;;3.67;;
39066;SDS011;24821;51.988;6.020;2023-09-30T13:08:23;9.20;;;4.65;;
39066;SDS011;24821;51.988;6.020;2023-09-30T13:10:48;5.30;;;3.60;;
39066;SDS011;24821;51.988;6.020;2023-09-30T13:13:15;4.72;;;4.05;;
39066;SDS011;24821;51.988;6.020;2023-09-30T13:15:41;7.82;;;4.50;;
39066;SDS011;24821;51.988;6.020;2023-09-30T13:18:07;3.65;;;3.35;;
39066;SDS011;24821;51.988;6.020;2023-09-30T13:20:32;5.38;;;4.25;;
39066;SDS011;24821;51.988;6.020;2023-09-30T13:22:58;6.60;;;4.40;;
39066;SDS011;24821;51.988;6.020;2023-09-30T13:25:24;5.05;;;4.22;;
39066;SDS011;24821;51.988;6.020;2023-09-30T13:27:49;3.55;;;3.35;;
39066;SDS011;24821;51.988;6.020;2023-09-30T13:30:15;4.45;;;4.15;;
39066;SDS011;24821;51.988;6.020;2023-09-30T13:32:42;5.40;;;4.22;;
39066;SDS011;24821;51.988;6.020;2023-09-30T13:35:09;3.72;;;3.38;;
39066;SDS011;24821;51.988;6.020;2023-09-30T13:37:34;6.13;;;3.58;;
39066;SDS011;24821;51.988;6.020;2023-09-30T13:40:02;3.88;;;3.55;;
39066;SDS011;24821;51.988;6.020;2023-09-30T13:42:29;4.30;;;3.70;;
39066;SDS011;24821;51.988;6.020;2023-09-30T13:44:55;4.13;;;3.83;;
39066;SDS011;24821;51.988;6.020;2023-09-30T13:47:24;4.00;;;3.60;;
39066;SDS011;24821;51.988;6.020;2023-09-30T13:49:50;6.50;;;4.43;;
39066;SDS011;24821;51.988;6.020;2023-09-30T13:52:16;5.32;;;4.20;;
39066;SDS011;24821;51.988;6.020;2023-09-30T13:54:42;4.78;;;4.28;;
39066;SDS011;24821;51.988;6.020;2023-09-30T13:57:08;5.35;;;4.30;;
39066;SDS011;24821;51.988;6.020;2023-09-30T13:59:34;6.43;;;4.47;;
39066;SDS011;24821;51.988;6.020;2023-09-30T14:02:00;10.52;;;4.38;;
39066;SDS011;24821;51.988;6.020;2023-09-30T14:04:29;8.05;;;5.07;;
39066;SDS011;24821;51.988;6.020;2023-09-30T14:06:56;4.82;;;4.50;;
39066;SDS011;24821;51.988;6.020;2023-09-30T14:09:26;7.72;;;4.82;;
39066;SDS011;24821;51.988;6.020;2023-09-30T14:11:52;6.57;;;4.47;;
39066;SDS011;24821;51.988;6.020;2023-09-30T14:14:18;5.82;;;4.25;;
39066;SDS011;24821;51.988;6.020;2023-09-30T14:16:44;6.88;;;3.92;;
39066;SDS011;24821;51.988;6.020;2023-09-30T14:19:09;4.65;;;3.92;;
39066;SDS011;24821;51.988;6.020;2023-09-30T14:21:35;6.65;;;4.78;;
39066;SDS011;24821;51.988;6.020;2023-09-30T14:24:00;6.28;;;5.68;;
39066;SDS011;24821;51.988;6.020;2023-09-30T14:26:27;6.10;;;4.50;;
39066;SDS011;24821;51.988;6.020;2023-09-30T14:28:53;6.28;;;4.65;;
39066;SDS011;24821;51.988;6.020;2023-09-30T14:31:19;10.00;;;5.50;;
39066;SDS011;24821;51.988;6.020;2023-09-30T14:33:44;4.57;;;4.13;;
39066;SDS011;24821;51.988;6.020;2023-09-30T14:36:10;5.22;;;4.13;;
39066;SDS011;24821;51.988;6.020;2023-09-30T14:38:36;6.95;;;4.10;;
39066;SDS011;24821;51.988;6.020;2023-09-30T14:41:06;7.75;;;4.05;;
39066;SDS011;24821;51.988;6.020;2023-09-30T14:43:33;8.07;;;5.22;;
39066;SDS011;24821;51.988;6.020;2023-09-30T14:46:01;8.27;;;4.85;;
39066;SDS011;24821;51.988;6.020;2023-09-30T14:48:28;7.07;;;6.25;;
39066;SDS011;24821;51.988;6.020;2023-09-30T14:50:53;8.88;;;6.07;;
39066;SDS011;24821;51.988;6.020;2023-09-30T14:53:20;6.72;;;5.45;;
39066;SDS011;24821;51.988;6.020;2023-09-30T14:55:45;5.78;;;5.10;;
39066;SDS011;24821;51.988;6.020;2023-09-30T14:58:11;7.30;;;5.05;;
39066;SDS011;24821;51.988;6.020;2023-09-30T15:00:37;7.55;;;5.38;;
39066;SDS011;24821;51.988;6.020;2023-09-30T15:03:02;6.53;;;5.15;;
39066;SDS011;24821;51.988;6.020;2023-09-30T15:05:30;6.47;;;5.78;;
39066;SDS011;24821;51.988;6.020;2023-09-30T15:07:56;12.02;;;5.10;;